createdAt,value
2022-08-25T00:01:34.233Z,81.38
2022-08-25T00:07:05.925Z,82.82
2022-08-25T00:12:37.872Z,82.76
2022-08-25T00:20:31.142Z,83.24
2022-08-25T00:26:02.647Z,84.07
2022-08-25T00:31:37.688Z,84.11
2022-08-25T00:37:06.462Z,84.77
2022-08-25T00:42:38.311Z,84.32
2022-08-25T00:48:10.283Z,84.87
2022-08-25T00:53:41.837Z,85.10
2022-08-25T00:59:13.784Z,84.91
2022-08-25T01:04:48.714Z,85.46
2022-08-25T01:10:17.429Z,85.30
2022-08-25T01:15:48.934Z,85.48
2022-08-25T01:21:20.406Z,86.01
2022-08-25T01:26:52.252Z,86.01
2022-08-25T01:32:24.041Z,86.40
2022-08-25T01:37:55.698Z,86.81
2022-08-25T01:43:27.126Z,86.39
2022-08-25T01:49:00.417Z,86.64
2022-08-25T01:54:30.859Z,86.22
2022-08-25T02:00:02.503Z,85.57
2022-08-25T02:05:34.524Z,84.85
2022-08-25T02:11:06.356Z,84.91
2022-08-25T02:16:38.224Z,85.77
2022-08-25T02:22:10.078Z,85.93
2022-08-25T02:27:41.792Z,85.24
2022-08-25T02:33:13.544Z,86.73
2022-08-25T02:38:45.395Z,85.50
2022-08-25T02:44:16.935Z,87.55
2022-08-25T02:49:48.311Z,87.73
2022-08-25T02:55:19.709Z,87.22
2022-08-25T03:00:51.756Z,88.02
2022-08-25T03:06:23.679Z,88.10
2022-08-25T03:11:54.801Z,89.61
2022-08-25T03:17:26.576Z,89.95
2022-08-25T03:22:58.530Z,89.62
2022-08-25T03:28:30.304Z,89.25
2022-08-25T03:34:02.068Z,89.55
2022-08-25T03:39:34.061Z,90.00
2022-08-25T03:45:05.795Z,90.04
2022-08-25T03:50:37.124Z,90.40
2022-08-25T03:56:08.726Z,90.53
2022-08-25T04:01:40.638Z,90.65
2022-08-25T04:12:43.990Z,92.00
2022-08-25T04:18:15.642Z,91.59
2022-08-25T04:23:47.226Z,91.97
2022-08-25T04:29:20.093Z,91.75
2022-08-25T04:34:51.856Z,91.40
2022-08-25T04:40:23.855Z,91.02
2022-08-25T04:45:55.193Z,91.49
2022-08-25T04:51:27.181Z,91.23
2022-08-25T04:56:59.047Z,90.85
2022-08-25T05:02:30.728Z,90.72
2022-08-25T05:08:02.693Z,91.05
2022-08-25T05:13:34.178Z,89.87
2022-08-25T05:19:06.055Z,88.88
2022-08-25T05:24:37.866Z,86.10
2022-08-25T05:30:09.603Z,82.68
2022-08-25T05:35:41.128Z,80.84
2022-08-25T05:41:12.709Z,79.15
2022-08-25T05:46:44.496Z,76.58
2022-08-25T05:52:18.215Z,73.74
2022-08-25T05:57:48.226Z,71.50
2022-08-25T06:03:19.906Z,71.00
2022-08-25T06:08:51.895Z,69.29
2022-08-25T06:14:23.785Z,68.35
2022-08-25T06:19:55.452Z,66.17
2022-08-25T06:25:27.356Z,66.51
2022-08-25T06:30:58.944Z,64.24
2022-08-25T06:36:30.907Z,64.62
2022-08-25T06:42:02.766Z,61.97
2022-08-25T06:47:34.657Z,63.43
2022-08-25T06:53:06.270Z,60.20
2022-08-25T06:58:37.766Z,63.53
2022-08-25T07:04:13.070Z,60.77
2022-08-25T07:09:41.387Z,61.09
2022-08-25T07:15:20.905Z,60.48
2022-08-25T07:20:44.722Z,59.69
2022-08-25T07:26:36.225Z,58.72
2022-08-25T07:31:48.607Z,58.37
2022-08-25T07:37:45.506Z,56.58
2022-08-25T07:42:52.133Z,56.19
2022-08-25T07:48:23.965Z,58.14
2022-08-25T07:53:55.676Z,59.57
2022-08-25T07:59:27.507Z,58.58
2022-08-25T08:04:59.443Z,57.03
2022-08-25T08:11:00.615Z,59.96
2022-08-25T08:16:03.129Z,57.58
2022-08-25T08:21:34.617Z,58.21
2022-08-25T08:27:06.335Z,56.83
2022-08-25T08:33:06.399Z,57.24
2022-08-25T08:38:16.159Z,58.39
2022-08-25T08:43:41.933Z,57.19
2022-08-25T08:49:13.971Z,58.83
2022-08-25T08:54:46.217Z,54.54
2022-08-25T09:00:18.001Z,57.94
2022-08-25T09:11:21.464Z,55.87
2022-08-25T09:16:53.389Z,58.24
2022-08-25T09:22:35.519Z,55.19
2022-08-25T09:27:57.071Z,56.32
2022-08-25T09:33:28.830Z,56.90
2022-08-25T09:39:00.473Z,57.67
2022-08-25T09:44:32.210Z,57.41
2022-08-25T09:50:04.628Z,58.37
2022-08-25T09:55:35.826Z,59.88
2022-08-25T10:01:07.561Z,59.63
2022-08-25T10:06:39.586Z,59.79
2022-08-25T10:12:11.430Z,59.75
2022-08-25T10:17:42.889Z,60.08
2022-08-25T10:23:14.875Z,59.06
2022-08-25T10:28:46.656Z,58.96
2022-08-25T10:34:18.549Z,58.30
2022-08-25T10:39:55.363Z,57.03
2022-08-25T10:45:22.174Z,57.42
2022-08-25T11:01:57.228Z,59.77
2022-08-25T11:07:31.530Z,58.14
2022-08-25T11:24:06.718Z,58.82
2022-08-25T11:29:39.450Z,58.91
2022-08-25T11:35:10.166Z,57.04
2022-08-25T11:40:41.721Z,57.49
2022-08-25T11:46:14.000Z,57.47
2022-08-25T11:51:45.454Z,56.38
2022-08-25T11:57:17.703Z,56.73
2022-08-25T12:13:53.544Z,55.55
2022-08-25T12:19:25.418Z,54.16
2022-08-25T12:24:57.207Z,54.64
2022-08-25T12:30:28.737Z,53.06
2022-08-25T12:36:00.475Z,52.54
2022-08-25T12:41:33.671Z,50.98
2022-08-25T12:47:05.981Z,50.69
2022-08-25T12:52:37.754Z,52.53
2022-08-25T12:58:10.720Z,52.16
2022-08-25T13:00:33.629Z,52.12
2022-08-25T13:06:05.406Z,51.76
2022-08-25T13:11:37.352Z,51.34
2022-08-25T13:17:09.683Z,49.74
2022-08-25T13:22:40.660Z,51.01
2022-08-25T13:28:12.464Z,50.69
2022-08-25T13:33:44.353Z,53.03
2022-08-25T13:39:17.041Z,53.17
2022-08-25T13:50:20.725Z,53.58
2022-08-25T13:55:53.381Z,52.70
2022-08-25T14:01:48.994Z,52.27
2022-08-25T14:06:56.894Z,52.20
2022-08-25T14:18:00.795Z,50.50
2022-08-25T14:23:32.917Z,50.20
2022-08-25T14:29:04.475Z,49.50
2022-08-25T14:34:36.494Z,49.03
2022-08-25T14:40:08.254Z,48.85
2022-08-25T14:45:40.090Z,49.49
2022-08-25T14:51:11.384Z,50.68
2022-08-25T14:56:43.098Z,48.74
2022-08-25T15:02:14.763Z,49.91
2022-08-25T15:07:46.519Z,50.65
2022-08-25T15:18:49.274Z,51.77
2022-08-25T15:24:21.128Z,51.71
2022-08-25T15:29:52.998Z,51.83
2022-08-25T15:35:27.729Z,52.64
2022-08-25T15:40:56.453Z,51.74
2022-08-25T15:46:28.395Z,51.00
2022-08-25T15:51:59.752Z,51.56
2022-08-25T15:57:31.587Z,51.58
2022-08-25T16:08:35.453Z,51.22
2022-08-25T16:14:07.063Z,50.42
2022-08-25T16:19:39.319Z,48.56
2022-08-25T16:25:10.731Z,48.67
2022-08-25T16:30:42.497Z,48.78
2022-08-25T16:36:14.237Z,49.14
2022-08-25T16:41:46.007Z,49.38
2022-08-25T16:47:20.328Z,49.43
2022-08-25T16:52:48.972Z,50.09
2022-08-25T16:58:20.343Z,53.45
2022-08-25T17:03:52.327Z,54.17
2022-08-25T17:14:55.776Z,55.79
2022-08-25T17:20:27.957Z,55.21
2022-08-25T17:25:59.282Z,57.00
2022-08-25T17:31:30.831Z,57.48
2022-08-25T17:37:02.226Z,57.83
2022-08-25T17:42:36.369Z,57.67
2022-08-25T17:48:08.363Z,57.84
2022-08-25T17:53:39.803Z,59.04
2022-08-25T17:59:11.098Z,59.46
2022-08-25T18:04:43.073Z,60.76
2022-08-25T18:10:15.018Z,61.20
2022-08-25T18:15:46.892Z,60.77
2022-08-25T18:26:50.179Z,61.36
2022-08-25T18:32:22.125Z,61.38
2022-08-25T18:37:53.659Z,61.96
2022-08-25T18:43:25.452Z,62.29
2022-08-25T18:48:57.244Z,62.88
2022-08-25T18:54:28.951Z,62.95
2022-08-25T19:00:00.757Z,64.86
2022-08-25T19:05:32.014Z,65.00
2022-08-25T19:11:03.331Z,65.56
2022-08-25T19:16:35.183Z,66.66
2022-08-25T19:22:13.424Z,67.71
2022-08-25T19:27:38.464Z,68.16
2022-08-25T19:33:11.703Z,68.46
2022-08-25T19:38:41.968Z,68.96
2022-08-25T19:44:13.663Z,69.19
2022-08-25T19:49:45.562Z,69.43
2022-08-25T19:55:17.650Z,68.56
2022-08-25T20:00:51.282Z,69.72
2022-08-25T20:06:21.350Z,69.28
2022-08-25T20:11:55.023Z,69.85
2022-08-25T20:17:28.646Z,70.14
2022-08-25T20:22:58.889Z,69.71
2022-08-25T20:28:30.637Z,70.35
2022-08-25T20:34:03.074Z,70.50
2022-08-25T20:45:08.293Z,71.76
2022-08-25T20:50:40.166Z,71.90
2022-08-25T20:56:11.684Z,72.96
2022-08-25T21:01:43.563Z,71.70
2022-08-25T21:12:47.323Z,73.29
2022-08-25T21:23:50.878Z,73.40
2022-08-25T21:29:22.578Z,73.60
2022-08-25T21:34:54.359Z,73.82
2022-08-25T21:40:26.258Z,72.70
2022-08-25T21:45:57.675Z,74.44
2022-08-25T21:51:28.998Z,74.24
2022-08-25T22:10:24.992Z,73.60
2022-08-25T22:15:56.460Z,73.97
2022-08-25T22:21:27.683Z,75.79
2022-08-25T22:26:59.508Z,74.76
2022-08-25T22:32:30.980Z,76.87
2022-08-25T22:38:02.738Z,77.44
2022-08-25T22:43:34.875Z,77.52
2022-08-25T22:49:06.369Z,77.21
2022-08-25T22:54:38.455Z,76.44
2022-08-25T23:00:10.142Z,78.24
2022-08-25T23:05:42.118Z,79.66
2022-08-25T23:11:13.839Z,79.35
2022-08-25T23:16:45.754Z,81.04
2022-08-25T23:22:17.158Z,80.98
2022-08-25T23:27:48.805Z,80.56
2022-08-25T23:33:20.348Z,80.32
2022-08-25T23:38:52.370Z,81.97
2022-08-25T23:44:24.474Z,81.84
2022-08-25T23:49:55.955Z,82.13
2022-08-25T23:55:33.038Z,82.26
